Latest Weather Observations for Lucinda

IDQ60801

Issued at 11:32 am EST Thursday 29 September 2016 (issued every 30 minutes, with the page automatically refreshed every 10 minutes)

About weather observations | Map of weather stations | Latest weather observations for QLD | Other Formats
Station Details ID: 032141 Name: LUCINDA POINT Lat: -18.52 Lon: 146.39 Height: 10.0 m
Data from the previous 72 hours. | See also: Recent months at Lucinda
Date/Time
EST
Temp
°C
App
Temp
°C
Dew
Point
°C
Rel
Hum
%
Delta-T
°C
Wind Press
QNH
hPa
Press
MSL
hPa
Rain since
9am
mm
Dir  Spd
km/h
Gust
km/h
Spd
kts
Gust
kts
29/11:30am 26.2 25.4 22.3 79 2.6 NNW 30 35 16 19 1009.8 1009.8 0.0
29/11:00am 26.3 24.6 21.7 76 3.1 N 33 41 18 22 1010.0 1010.0 0.0
29/10:30am 26.1 24.6 21.7 77 2.9 NNW 32 39 17 21 1010.7 1010.7 0.0
29/10:00am 26.2 24.7 21.8 77 2.9 NNW 32 39 17 21 1010.8 1010.8 0.0
29/09:30am 26.3 25.1 21.5 75 3.2 NNW 30 39 16 21 1010.9 1010.9 0.0
29/09:00am 26.5 24.8 21.7 75 3.2 NNW 33 37 18 20 1011.0 1011.0 0.0
29/08:30am 26.1 24.8 21.3 75 3.2 NNW 30 35 16 19 1011.2 1011.2 0.0
29/08:00am 25.9 24.6 21.3 76 3.0 NNW 30 37 16 20 1011.1 1011.1 0.0
29/07:30am 25.9 24.8 21.8 78 2.7 NNW 30 39 16 21 1010.5 1010.5 0.0
29/07:00am 25.7 24.6 21.8 79 2.6 NNW 30 39 16 21 1010.0 1010.0 0.0
29/06:30am 25.5 24.8 21.8 80 2.5 NNW 28 35 15 19 1010.0 1010.0 0.0
29/06:00am 25.6 24.2 21.9 80 2.5 N 32 39 17 21 1009.5 1009.5 0.0
29/05:30am 25.6 24.2 21.9 80 2.5 N 32 44 17 24 1009.3 1009.3 0.0
29/05:00am 25.6 24.0 21.5 78 2.7 NNW 32 39 17 21 1008.9 1008.9 0.0
29/04:30am 25.5 23.9 21.6 79 2.6 N 32 43 17 23 1008.9 1008.9 0.0
29/04:00am 25.5 23.9 21.6 79 2.6 N 32 43 17 23 1008.9 1008.9 0.0
29/03:30am 25.6 23.2 21.9 80 2.5 N 37 43 20 23 1008.9 1008.9 0.0
29/03:00am 25.6 22.9 21.3 77 2.8 N 37 46 20 25 1009.1 1009.1 0.0
29/02:30am 25.5 22.5 20.7 75 3.1 N 37 43 20 23 1009.3 1009.3 0.0
29/02:00am 25.6 22.8 21.1 76 3.0 N 37 44 20 24 1009.7 1009.7 0.0
29/01:30am 25.7 22.8 20.9 75 3.2 N 37 43 20 23 1010.2 1010.2 0.0
29/01:00am 25.7 22.6 20.5 73 3.4 N 37 44 20 24 1010.5 1010.5 0.0
29/12:30am 25.6 22.7 20.8 75 3.2 N 37 43 20 23 1010.8 1010.8 0.0
29/12:00am 25.6 22.3 20.8 75 3.2 NNE 39 46 21 25 1011.0 1011.0 0.0
 
Date/Time
EST
Temp
°C
App
Temp
°C
Dew
Point
°C
Rel
Hum
%
Delta-T
°C
Wind Press
QNH
hPa
Press
MSL
hPa
Rain since
9am
mm
Dir  Spd
km/h
Gust
km/h
Spd
kts
Gust
kts
28/11:30pm 25.7 23.4 20.5 73 3.4 NNE 33 37 18 20 1011.5 1011.5 0.0
28/11:00pm 25.6 24.1 20.2 72 3.5 NNE 28 33 15 18 1011.8 1011.8 0.0
28/10:30pm 25.6 24.7 20.6 74 3.3 NNE 26 30 14 16 1011.9 1011.9 0.0
28/10:00pm 25.7 25.6 20.7 74 3.3 N 22 28 12 15 1011.8 1011.8 0.0
28/09:30pm 25.8 24.1 19.7 69 3.9 NNE 28 33 15 18 1011.4 1011.4 0.0
28/09:00pm 25.7 24.1 20.0 71 3.7 NNE 28 33 15 18 1011.3 1011.3 0.0
28/08:30pm 25.9 24.4 20.2 71 3.7 NE 28 33 15 18 1011.2 1011.2 0.0
28/08:00pm 25.8 24.2 20.1 71 3.7 NE 28 32 15 17 1011.4 1011.4 0.0
28/07:30pm 25.8 24.8 19.7 69 3.9 NE 24 28 13 15 1011.2 1011.2 0.0
28/07:00pm 25.9 24.9 20.5 72 3.5 NE 26 30 14 16 1011.1 1011.1 0.0
28/06:30pm 25.9 24.5 20.5 72 3.5 NE 28 32 15 17 1010.8 1010.8 0.0
28/06:00pm 25.8 24.0 20.4 72 3.5 NE 30 33 16 18 1010.6 1010.6 0.0
28/05:30pm 25.9 24.7 20.9 74 3.3 NE 28 30 15 16 1010.4 1010.4 0.0
28/05:00pm 26.0 24.7 20.6 72 3.5 NNE 28 33 15 18 1009.7 1009.7 0.0
28/04:30pm 25.8 24.5 20.6 73 3.4 NE 28 32 15 17 1009.7 1009.7 0.0
28/04:00pm 26.1 25.8 21.1 74 3.3 NE 24 28 13 15 1009.7 1009.7 0.0
28/03:30pm 25.9 25.5 20.9 74 3.3 NE 24 26 13 14 1009.9 1009.9 0.0
28/03:00pm 25.9 26.3 20.9 74 3.3 NE 20 24 11 13 1010.3 1010.3 0.0
28/02:30pm 25.8 25.6 20.6 73 3.4 NE 22 26 12 14 1010.6 1010.6 0.0
28/02:00pm 26.1 26.4 20.7 72 3.6 NE 20 24 11 13 1010.9 1010.9 0.0
28/01:30pm 26.3 26.6 20.8 71 3.6 ENE 20 24 11 13 1011.4 1011.4 0.0
28/01:00pm 26.8 27.6 20.6 69 4.1 ENE 17 24 9 13 1011.8 1011.8 0.0
28/12:30pm 27.2 29.0 21.2 69 4.0 ENE 13 20 7 11 1012.5 1012.5 0.0
28/12:00pm 27.0 28.0 21.1 70 3.9 ENE 17 28 9 15 1012.9 1012.9 0.0
28/11:30am 27.2 28.5 20.8 68 4.2 E 15 24 8 13 1013.5 1013.5 0.0
28/11:00am 26.7 28.5 21.2 72 3.6 ENE 13 20 7 11 1013.7 1013.7 0.0
28/10:30am 26.6 26.5 20.7 70 3.9 ENE 22 28 12 15 1013.5 1013.5 0.0
28/10:00am 25.9 26.4 20.9 74 3.3 E 19 28 10 15 1014.1 1014.1 0.0
28/09:30am 26.5 27.2 21.5 74 3.3 ESE 20 24 11 13 1014.0 1014.0 0.0
28/09:00am 26.3 27.6 21.7 76 3.1 E 17 22 9 12 1014.0 1014.0 0.0
28/08:30am 26.0 27.2 22.1 79 2.6 ESE 19 24 10 13 1013.8 1013.8 0.0
28/08:00am 26.1 28.0 22.0 78 2.7 ESE 15 17 8 9 1013.8 1013.8 0.0
28/07:30am 26.1 28.5 21.5 76 3.1 ENE 11 15 6 8 1013.3 1013.3 0.0
28/07:00am 26.3 29.5 22.4 79 2.6 E 9 13 5 7 1012.8 1012.8 0.0
28/06:30am 25.5 28.6 22.2 82 2.2 E 9 13 5 7 1012.7 1012.7 0.0
28/06:00am 25.2 28.2 21.9 82 2.2 E 9 13 5 7 1012.4 1012.4 0.0
28/05:30am 25.1 27.9 21.6 81 2.3 E 9 15 5 8 1012.0 1012.0 0.0
28/05:00am 25.1 28.0 21.8 82 2.2 E 9 13 5 7 1011.8 1011.8 0.0
28/04:30am 25.1 28.0 21.8 82 2.2 ENE 9 13 5 7 1011.4 1011.4 0.0
28/04:00am 25.0 28.0 21.9 83 2.1 E 9 15 5 8 1011.2 1011.2 0.0
28/03:30am 25.2 27.8 21.9 82 2.2 ENE 11 15 6 8 1011.2 1011.2 0.0
28/03:00am 25.2 28.5 22.5 85 1.8 E 9 15 5 8 1011.2 1011.2 0.0
28/02:30am 25.3 27.9 22.6 85 1.8 ESE 13 15 7 8 1011.4 1011.4 0.0
28/02:00am 25.3 28.6 22.6 85 1.8 E 9 15 5 8 1011.9 1011.9 0.0
28/01:30am 25.3 28.4 22.8 86 1.7 ENE 11 13 6 7 1012.3 1012.3 0.0
28/01:00am 25.3 28.1 23.0 87 1.6 NE 13 15 7 8 1012.4 1012.4 0.0
28/12:30am 25.3 28.6 23.2 88 1.4 ENE 11 15 6 8 1012.9 1012.9 0.0
28/12:00am 25.2 29.3 23.3 89 1.3 E 7 11 4 6 1013.2 1013.2 0.0
 
Date/Time
EST
Temp
°C
App
Temp
°C
Dew
Point
°C
Rel
Hum
%
Delta-T
°C
Wind Press
QNH
hPa
Press
MSL
hPa
Rain since
9am
mm
Dir  Spd
km/h
Gust
km/h
Spd
kts
Gust
kts
27/11:30pm 25.2 28.8 23.1 88 1.4 NE 9 11 5 6 1013.3 1013.3 0.0
27/11:00pm 25.2 28.8 23.1 88 1.4 NE 9 11 5 6 1013.3 1013.3 0.0
27/10:30pm 25.3 28.5 23.0 87 1.6 N 11 13 6 7 1013.3 1013.3 0.0
27/10:00pm 25.4 28.3 23.1 87 1.6 NNW 13 17 7 9 1013.2 1013.2 0.0
27/09:30pm 25.4 28.3 23.1 87 1.6 N 13 15 7 8 1013.2 1013.2 0.0
27/09:00pm 25.5 27.5 23.0 86 1.7 N 17 20 9 11 1012.7 1012.7 0.0
27/08:30pm 25.6 27.2 22.9 85 1.8 N 19 20 10 11 1012.5 1012.5 0.0
27/08:00pm 25.6 27.0 22.9 85 1.8 N 20 22 11 12 1012.4 1012.4 0.0
27/07:30pm 25.6 27.0 22.9 85 1.8 N 20 24 11 13 1012.1 1012.1 0.0
27/07:00pm 25.7 26.9 23.2 86 1.7 N 22 28 12 15 1011.6 1011.6 0.0
27/06:30pm 25.7 26.4 23.0 85 1.8 NNE 24 26 13 14 1011.2 1011.2 0.0
27/06:00pm 25.7 26.4 23.0 85 1.8 NNE 24 28 13 15 1010.8 1010.8 0.0
27/05:30pm 25.7 25.8 22.6 83 2.1 NNE 26 28 14 15 1010.3 1010.3 0.0
27/05:00pm 25.7 25.9 22.8 84 2.0 NE 26 30 14 16 1010.2 1010.2 0.0
27/04:30pm 25.8 26.1 22.9 84 2.0 NE 26 28 14 15 1010.0 1010.0 0.0
27/04:00pm 25.6 25.3 22.5 83 2.1 NE 28 30 15 16 1009.9 1009.9 0.0
27/03:30pm 25.8 26.3 22.7 83 2.1 NE 24 26 13 14 1010.2 1010.2 0.0
27/03:00pm 25.5 26.3 22.4 83 2.1 NE 22 24 12 13 1010.2 1010.2 0.0
27/02:30pm 26.2 27.4 22.5 80 2.5 ENE 20 24 11 13 1010.5 1010.5 0.0
27/02:00pm 27.0 30.0 22.6 77 3.0 E 11 17 6 9 1011.1 1011.1 0.0
27/01:30pm 27.0 29.7 22.8 78 2.8 E 13 20 7 11 1011.5 1011.5 0.0
27/01:00pm 26.6 29.6 22.7 79 2.6 SE 11 17 6 9 1012.1 1012.1 0.0
27/12:30pm 26.5 29.2 22.8 80 2.5 SE 13 20 7 11 1012.6 1012.6 0.0
27/12:00pm 26.4 29.0 22.7 80 2.5 SE 13 17 7 9 1013.1 1013.1 0.0
27/11:30am 26.1 28.7 22.6 81 2.4 S 13 15 7 8 1013.5 1013.5 0.0
27/11:00am 26.0 28.9 23.1 84 2.0 S 13 17 7 9 1014.0 1014.0 0.0
27/10:30am 25.3 28.1 23.0 87 1.6 SSW 13 17 7 9 1014.3 1014.3 0.0
27/10:00am 25.3 28.9 23.0 87 1.6 SSW 9 11 5 6 1014.5 1014.5 0.0
27/09:30am 25.0 28.4 22.7 87 1.5 SSW 9 15 5 8 1014.9 1014.9 0.0
27/09:00am 24.6 27.3 22.1 86 1.7 SSW 11 13 6 7 1015.1 1015.1 0.0
27/08:30am 24.4 26.7 22.1 87 1.5 SW 13 15 7 8 1015.2 1015.2 0.0
27/08:00am 24.0 26.4 22.3 90 1.1 SW 13 15 7 8 1014.9 1014.9 0.0
27/07:30am 23.5 26.1 21.9 91 1.1 SW 11 13 6 7 1014.6 1014.6 0.0
27/07:00am 23.6 27.1 22.2 92 0.9 WSW 7 11 4 6 1014.0 1014.0 0.0
27/06:30am 22.7 24.0 21.7 94 0.7 SW 17 17 9 9 1013.9 1013.9 0.0
27/06:00am 23.0 24.9 22.0 94 0.7 WSW 15 17 8 9 1013.5 1013.5 0.0
27/05:30am 23.1 25.3 21.9 93 0.8 WSW 13 15 7 8 1013.1 1013.1 0.0
27/05:00am 23.3 25.3 22.3 94 0.7 SSW 15 19 8 10 1013.0 1013.0 0.0
27/04:30am 23.3 25.2 22.1 93 0.8 SW 15 19 8 10 1012.5 1012.5 0.0
27/04:00am 23.6 25.7 22.4 93 0.8 WSW 15 17 8 9 1012.1 1012.1 0.0
27/03:30am 23.6 25.6 22.2 92 0.9 WSW 15 17 8 9 1011.9 1011.9 0.0
27/03:00am 24.5 28.0 22.8 90 1.1 WSW 9 11 5 6 1012.0 1012.0 0.0
27/02:30am 25.1 30.3 22.8 87 1.6 CALM 0 7 0 4 1012.3 1012.3 0.0
27/02:00am 24.7 29.5 22.2 86 1.7 CALM 0 0 0 0 1012.6 1012.6 0.0
27/01:30am 25.1 30.5 23.2 89 1.3 CALM 0 0 0 0 1012.7 1012.7 0.0
27/01:00am 25.0 29.0 22.7 87 1.5 NW 6 9 3 5 1013.1 1013.1 0.0
27/12:30am 25.2 28.7 22.9 87 1.6 N 9 9 5 5 1013.4 1013.4 0.0
27/12:00am 25.3 28.4 22.8 86 1.7 NE 11 13 6 7 1013.5 1013.5 0.0
 
Date/Time
EST
Temp
°C
App
Temp
°C
Dew
Point
°C
Rel
Hum
%
Delta-T
°C
Wind Press
QNH
hPa
Press
MSL
hPa
Rain since
9am
mm
Dir  Spd
km/h
Gust
km/h
Spd
kts
Gust
kts
26/11:30pm 25.5 29.2 23.2 87 1.6 NNE 9 13 5 7 1013.7 1013.7 0.0
26/11:00pm 25.5 27.5 23.0 86 1.7 N 17 19 9 10 1013.7 1013.7 0.0
26/10:30pm 25.6 26.4 23.1 86 1.7 N 24 28 13 15 1013.2 1013.2 0.0
26/10:00pm 25.5 26.2 23.0 86 1.7 N 24 28 13 15 1013.3 1013.3 0.0
26/09:30pm 25.6 26.7 23.1 86 1.7 N 22 24 12 13 1013.1 1013.1 0.0
26/09:00pm 25.7 27.3 23.2 86 1.7 N 20 28 11 15 1012.7 1012.7 0.0
26/08:30pm 25.7 26.9 23.2 86 1.7 N 22 26 12 14 1012.4 1012.4 0.0
26/08:00pm 25.7 27.3 23.2 86 1.7 N 20 26 11 14 1011.7 1011.7 0.0
26/07:30pm 25.7 25.3 23.0 85 1.8 NNW 30 33 16 18 1011.2 1011.2 0.0
26/07:00pm 25.8 25.8 23.1 85 1.8 N 28 35 15 19 1010.7 1010.7 0.0
26/06:30pm 25.8 26.3 23.3 86 1.7 N 26 32 14 17 1010.4 1010.4 0.0
26/06:00pm 25.9 25.7 22.8 83 2.1 N 28 32 15 17 1010.1 1010.1 0.0
26/05:30pm 26.3 25.8 22.8 81 2.4 N 30 33 16 18 1009.8 1009.8 0.0
26/05:00pm 26.5 26.2 22.6 79 2.6 N 28 33 15 18 1009.5 1009.5 0.0
26/04:30pm 26.6 25.8 22.4 78 2.8 N 30 33 16 18 1009.1 1009.1 0.0
26/04:00pm 27.0 26.6 22.4 76 3.1 N 28 30 15 16 1009.3 1009.3 0.0
26/03:30pm 26.8 27.3 22.6 78 2.8 NNE 24 30 13 16 1009.5 1009.5 0.0
26/03:00pm 26.0 25.8 22.1 79 2.6 NNE 26 28 14 15 1009.6 1009.6 0.0
26/02:30pm 26.1 27.1 22.2 79 2.6 NNE 20 24 11 13 1009.8 1009.8 0.0
26/02:00pm 26.0 26.6 22.1 79 2.6 NE 22 24 12 13 1009.9 1009.9 0.0
26/01:30pm 26.3 28.1 21.9 77 2.9 NE 15 17 8 9 1010.5 1010.5 0.0
26/01:00pm 26.5 29.5 21.9 76 3.1 NE 9 15 5 8 1010.9 1010.9 0.0
26/12:30pm 27.7 31.4 22.2 72 3.7 ENE 6 9 3 5 1011.4 1011.4 0.0
26/12:00pm 27.0 30.1 21.1 70 3.9 ESE 6 9 3 5 1011.9 1011.9 0.0

Other Formats:

Comma delimited format used in spreadsheet applications
http://www.bom.gov.au/fwo/IDQ60801/IDQ60801.94295.axf

JavaScript Object Notation format (JSON) in row-major order
http://www.bom.gov.au/fwo/IDQ60801/IDQ60801.94295.json